Tucurui, Brazil
Current Conditions -  °F | °C
As of 2:00 PM on Friday 19 Dec 2014 (Local Time) from SBMA Reporting Station
Broken Clouds Broken Clouds  
Wind Chill: 88°   Ceiling: 10000
Heat Index: 96°   Visibility: 6mi
Dew Point: 73°   Wind: 7mph
Humidity: 62%   Direction: 140°SE
Pressure: 29.83"   Gusts: NA
Location:  3.77°S, 49.67°W
Report Text: SBMA 191700Z 14006KT 9999 SCT025 FEW030TCU BKN100 31/23 Q1010
Loading
Personal Weather Stations






























Interactive Weather Map New forecast layout! Learn more

10-Day Weather Forecast

Advertisements
Track Severe Weather on mobile